• Join FlightAware (Why Join?)
  • Login
  • US Flag 
06:19AM EDT


 

Airport Tracker/Info


-or-


 

Live Flight TrackerFlight Track Log ✈ N53NW ✈ 07-May-2013 ✈ KMIE - KATL

Flight Track Log - Related Links

Times and Time Zones

All times are in EDT time to prevent confusion due to time zone crossing. See the N53NW flight status page for this flight to view local times or setup timezone preferences in your user account.

Time Position Orientation Groundspeed Altitude Reporting Facility
EDT Latitude Longitude Course Direction KTS MPH feet Rate Location/Type
07:39AM 40.2667 -85.4333 217° Southwest 258 297 2,300  Level Indianapolis TRACON
07:40AM 40.2122 -85.4872 217° Southwest 232 267 4,700 2,520 Climbing Indianapolis Center
07:41AM 40.1414 -85.5089 193° South 251 289 7,800 2,940 Climbing Indianapolis Center
07:42AM 40.0664 -85.5311 193° South 270 311 10,800 3,240 Climbing Indianapolis Center
07:43AM 39.9906 -85.5553 194° South 280 322 14,600 3,120 Climbing Indianapolis Center
07:44AM 39.9192 -85.5761 193° South 264 304 17,300 2,580 Climbing Indianapolis Center
07:45AM 39.8225 -85.6047 193° South 294 338 20,000 2,340 Climbing Indianapolis Center
07:46AM 39.7344 -85.6317 193° South 320 368 22,200 2,100 Climbing Indianapolis Center
07:47AM 39.6419 -85.6586 193° South 335 386 24,400 2,040 Climbing Indianapolis Center
07:48AM 39.5450 -85.6883 193° South 354 407 26,400 1,920 Climbing Indianapolis Center
07:49AM 39.4450 -85.7183 193° South 364 419 28,400 1,260 Climbing Indianapolis Center
07:50AM 39.3414 -85.7489 193° South 379 436 29,000 300 Climbing Indianapolis Center
07:51AM 39.2292 -85.7833 193° South 409 471 29,100 900 Climbing Indianapolis Center
07:52AM 39.1192 -85.8153 193° South 407 468 30,900 1,920 Climbing Indianapolis Center
07:53AM 38.9908 -85.8531 193° South 396 456 33,100 1,800 Climbing Indianapolis Center
07:54AM 38.8858 -85.8831 193° South 388 447 34,700 1,380 Climbing Indianapolis Center
07:56AM 38.7911 -85.9111 193° South 387 445 36,000 1,140 Climbing Indianapolis Center
07:57AM 38.6856 -85.9422 193° South 386 444 37,100 1,020 Climbing Indianapolis Center
07:58AM 38.5781 -85.9736 193° South 391 450 38,100 900 Climbing Indianapolis Center
07:59AM 38.4486 -86.0097 192° South 392 451 39,000 420 Climbing Indianapolis Center
08:00AM 38.3397 -86.0414 193° South 396 456 39,000  Level Indianapolis Center
08:01AM 38.2303 -86.0736 193° South 400 460 39,000  Level Indianapolis Center
08:02AM 38.1194 -86.1053 193° South 403 464 39,000 -300 Level Indianapolis Center
08:03AM 38.0089 -86.1375 193° South 404 465 38,400 -900 Descending Indianapolis Center
08:04AM 37.8969 -86.1692 193° South 408 470 37,200 -720 Descending Indianapolis Center
08:05AM 37.7828 -86.2031 193° South 416 479 37,000 -120 Descending Indianapolis Center
08:06AM 37.6689 -86.2364 193° South 416 479 37,000  Level Indianapolis Center
08:07AM 37.5547 -86.2672 192° South 416 479 37,000  Level Indianapolis Center
08:07AM 37.4775 -86.2881 192° South 415 478 37,000  Level Memphis Center
08:08AM 37.3661 -86.3200 193° South 415 478 37,000  Level Memphis Center
08:09AM 37.2497 -86.3258 182° South 415 478 37,000  Level Memphis Center
08:10AM 37.1228 -86.3297 181° South 415 478 37,000  Level Memphis Center
08:11AM 37.0103 -86.3328 181° South 421 484 37,000 -480 Level Memphis Center
08:12AM 36.8936 -86.3361 181° South 421 484 36,100 -1,020 Descending Memphis Center
08:13AM 36.7708 -86.3397 181° South 427 491 35,000 -720 Descending Memphis Center
08:14AM 36.6458 -86.3356 178° South 444 511 34,700 -780 Descending Memphis Center
08:15AM 36.5300 -86.3000 166° South 438 504 33,500 -900 Descending Memphis Center
08:16AM 36.4247 -86.2667 166° South 433 498 32,900 -900 Descending Memphis Center
08:17AM 36.3067 -86.2261 165° South 433 498 31,700 -960 Descending Memphis Center
08:18AM 36.1886 -86.1883 166° South 438 504 31,000 -360 Descending Memphis Center
08:19AM 36.0725 -86.1481 164° South 438 504 31,000  Level Memphis Center
08:20AM 35.9525 -86.1108 166° South 438 504 31,000  Level Memphis Center
08:21AM 35.8217 -86.0689 165° South 443 510 31,000  Level Memphis Center
08:24AM 35.5631 -85.9917 166° South 438 504 31,000  Level Atlanta Center
08:25AM 35.4428 -85.9506 164° South 444 511 31,000  Level Atlanta Center
08:26AM 35.3097 -85.9069 165° South 450 518 31,000 -720 Level Atlanta Center
08:27AM 35.1831 -85.8658 165° South 456 525 29,600 -1,500 Descending Atlanta Center
08:28AM 35.0753 -85.8281 164° South 456 525 28,000 -1,680 Descending Atlanta Center
08:29AM 34.9636 -85.7469 149° Southeast 456 525 26,300 -1,800 Descending Atlanta Center
08:30AM 34.8625 -85.6689 148° Southeast 444 511 24,500 -1,200 Descending Atlanta Center
08:31AM 34.7653 -85.5939 148° Southeast 432 497 24,000 -300 Descending Atlanta Center
08:32AM 34.6703 -85.5164 146° Southeast 422 486 24,000 -480 Level Atlanta Center
08:33AM 34.5711 -85.4389 147° Southeast 417 480 23,100 -1,380 Descending Atlanta Center
08:34AM 34.4800 -85.3692 148° Southeast 412 474 21,300 -1,800 Descending Atlanta Center
08:35AM 34.3869 -85.2947 147° Southeast 407 468 19,500 -1,920 Descending Atlanta Center
08:36AM 34.3042 -85.2283 146° Southeast 384 442 17,500 -1,800 Descending Atlanta Center
08:37AM 34.2108 -85.1567 148° Southeast 366 421 15,900 -1,680 Descending Atlanta Center
08:38AM 34.1322 -85.0828 142° Southeast 361 415 14,200 -960 Descending Atlanta Center
08:39AM 34.0744 -85.0069 133° Southeast 330 380 14,000 -900 Descending Atlanta Center
08:40AM 34.0144 -84.9286 133° Southeast 313 360 12,500 -1,020 Descending Atlanta Center
08:41AM 33.9564 -84.8553 134° Southeast 308 354 12,000 -300 Descending Atlanta Center
08:42AM 33.8964 -84.7797 134° Southeast 303 349 12,000  Level Atlanta Center
08:42AM 33.8667 -84.7333 128° Southeast 305 351 12,000  Level Atlanta TRACON
08:43AM 33.8000 -84.6667 140° Southeast 303 349 12,000  Level Atlanta TRACON
08:44AM 33.7500 -84.6000 132° Southeast 301 346 12,000 -840 Level Atlanta TRACON
08:45AM 33.7333 -84.5000 101° East 291 335 10,500 -1,380 Descending Atlanta TRACON
08:46AM 33.7333 -84.4167 90° East 274 315 9,400 -1,380 Descending Atlanta TRACON
08:47AM 33.7333 -84.3333 90° East 259 298 7,900 -1,500 Descending Atlanta TRACON
08:48AM 33.7500 -84.2667 73° East 248 285 6,600 -1,440 Descending Atlanta TRACON
08:49AM 33.7333 -84.1833 104° East 243 280 5,200 -900 Descending Atlanta TRACON
08:50AM 33.7333 -84.1000 90° East 240 276 5,000 -120 Descending Atlanta TRACON
08:51AM 33.7333 -84.0333 90° East 239 275 5,000  Level Atlanta TRACON
08:52AM 33.6833 -83.9833 140° Southeast 248 285 5,000  Level Atlanta TRACON
08:53AM 33.6500 -84.0167 220° Southwest 190 219 5,000  Level Atlanta TRACON
08:54AM 33.6500 -84.0833 270° West 186 214 5,000  Level Atlanta TRACON
08:55AM 33.6500 -84.1333 270° West 187 215 5,000 -240 Level Atlanta TRACON
08:56AM 33.6500 -84.2000 270° West 181 208 4,600 -780 Descending Atlanta TRACON
08:57AM 33.6500 -84.2500 270° West 172 198 3,500 -1,020 Descending Atlanta TRACON
08:58AM 33.6500 -84.3167 270° West 165 190 2,700 -840 Descending Atlanta TRACON
08:59AM 33.6500 -84.3500 270° West 123 142 2,000 -720 Descending Atlanta TRACON
09:00AM 33.6500 -84.3833 270° West 113 130 1,300 -720 Descending Atlanta TRACON